Terminal Aerodrome Forecast
Issued by NWS Buffalo, NY

Home | Current Version | Previous Version | Text Only | Print | Product List | Glossary On
Versions: 1 2 3 4 5 6 7 8 9 10 11 12 13 14 15 16 17 18 19 20 21 22 23 24 25
000
FTUS41 KBUF 042059 AAC
TAFROC
TAF AMD
KROC 042059Z 0421/0518 27011G19KT P6SM VCSH SCT110 OVC140
     FM050100 27010KT 6SM -SHRA OVC040
     FM050400 28007KT P6SM BKN040
     FM050900 30004KT P6SM BKN025
     FM051300 36004KT P6SM BKN090
     FM051600 04008KT P6SM BKN200=

USA.gov is the U.S. government's official web portal to all federal, state and local government web resources and services.